Time;durP1;ratioP1;P1;durP2;ratioP2;P2;SDS_P1;SDS_P2;PMS_P1;PMS_P2;Temp;Humidity;BMP_temperature;BMP_pressure;BME280_temperature;BME280_humidity;BME280_pressure;Samples;Min_cycle;Max_cycle;Signal;HPM_P1;HPM_P2
2023/08/09 00:00:10;;;;;;;10.63;6.37;;;15.30;99.90;;;;;;5012880;28;20192;-72
2023/08/09 00:02:35;;;;;;;6.33;5.67;;;15.30;99.90;;;;;;5012626;28;20237;-72
2023/08/09 00:05:01;;;;;;;6.60;6.00;;;15.30;99.90;;;;;;5013028;28;20263;-72
2023/08/09 00:07:27;;;;;;;8.60;6.80;;;15.30;99.90;;;;;;5010894;28;20590;-72
2023/08/09 00:09:52;;;;;;;7.50;6.77;;;15.30;99.90;;;;;;5011330;28;20548;-72
2023/08/09 00:12:18;;;;;;;7.00;6.20;;;15.30;99.90;;;;;;5012413;28;20642;-73
2023/08/09 00:14:43;;;;;;;7.07;6.37;;;15.30;99.90;;;;;;5012942;28;20168;-72
2023/08/09 00:17:09;;;;;;;8.03;6.73;;;15.40;99.90;;;;;;5012641;28;20267;-72
2023/08/09 00:19:34;;;;;;;13.33;6.20;;;15.40;99.90;;;;;;5012635;28;20226;-72
2023/08/09 00:22:00;;;;;;;8.20;6.07;;;15.40;99.90;;;;;;5012072;28;20180;-71
2023/08/09 00:24:26;;;;;;;9.43;6.47;;;15.40;99.90;;;;;;5012646;28;20175;-72
2023/08/09 00:26:51;;;;;;;8.13;6.13;;;15.40;99.90;;;;;;5012690;28;20623;-72
2023/08/09 00:29:17;;;;;;;8.27;6.33;;;15.40;99.90;;;;;;5012718;28;20176;-72
2023/08/09 00:31:43;;;;;;;7.90;6.03;;;15.50;99.90;;;;;;5011811;28;20678;-70
2023/08/09 00:34:08;;;;;;;8.00;6.10;;;15.50;99.90;;;;;;5012377;28;20211;-71
2023/08/09 00:36:34;;;;;;;9.27;6.37;;;15.50;99.90;;;;;;5012271;28;20679;-72
2023/08/09 00:39:00;;;;;;;6.97;6.37;;;15.40;99.90;;;;;;5012285;28;20238;-72
2023/08/09 00:41:26;;;;;;;7.70;6.17;;;15.40;99.90;;;;;;5012116;28;20196;-72
2023/08/09 00:43:51;;;;;;;8.50;6.73;;;15.40;99.90;;;;;;5012241;28;20195;-72
2023/08/09 00:46:17;;;;;;;7.20;6.17;;;15.50;99.90;;;;;;5012494;28;20176;-72
2023/08/09 00:48:43;;;;;;;8.13;6.63;;;15.40;99.90;;;;;;5012110;28;20191;-72
2023/08/09 00:51:10;;;;;;;6.43;5.73;;;15.40;99.90;;;;;;5012458;28;20218;-72
2023/08/09 00:53:36;;;;;;;7.70;6.50;;;15.50;99.90;;;;;;5011537;28;20194;-72
2023/08/09 00:56:02;;;;;;;9.23;6.53;;;15.40;99.90;;;;;;5011748;28;20287;-72
2023/08/09 00:58:28;;;;;;;7.83;6.10;;;15.50;99.90;;;;;;5012026;28;20200;-72
2023/08/09 01:00:53;;;;;;;9.00;6.63;;;15.50;99.90;;;;;;5010780;28;20633;-73
2023/08/09 01:03:19;;;;;;;13.50;6.83;;;15.50;99.90;;;;;;5010439;28;20204;-72
2023/08/09 01:06:02;;;;;;;8.93;6.50;;;15.50;99.90;;;;;;5011591;28;20206;-72
2023/08/09 01:08:49;;;;;;;8.13;6.07;;;15.50;99.90;;;;;;5011665;28;20184;-72
2023/08/09 01:11:35;;;;;;;8.83;6.60;;;15.50;99.90;;;;;;5011809;28;20642;-72
2023/08/09 01:14:02;;;;;;;7.63;6.83;;;15.50;99.90;;;;;;5012062;28;20687;-72
2023/08/09 01:16:28;;;;;;;9.87;6.87;;;15.50;99.90;;;;;;5011542;28;20208;-73
2023/08/09 01:18:56;;;;;;;9.07;6.37;;;15.50;99.90;;;;;;5010682;28;20175;-72
2023/08/09 01:21:26;;;;;;;6.43;5.83;;;15.50;99.90;;;;;;5011599;28;20195;-72
2023/08/09 01:23:52;;;;;;;10.83;6.93;;;15.50;99.90;;;;;;5011464;28;20318;-72
2023/08/09 01:26:18;;;;;;;10.43;7.53;;;15.50;99.90;;;;;;5011555;28;20180;-72
2023/08/09 01:28:43;;;;;;;7.93;7.13;;;15.50;99.90;;;;;;5011800;28;20195;-73
2023/08/09 01:31:10;;;;;;;7.60;6.80;;;15.50;99.90;;;;;;5011691;28;20184;-72
2023/08/09 01:33:36;;;;;;;12.07;7.93;;;15.50;99.90;;;;;;5011292;28;20239;-73
2023/08/09 01:36:11;;;;;;;8.97;7.50;;;15.50;99.90;;;;;;5011411;28;20270;-73
2023/08/09 01:38:43;;;;;;;4.73;4.23;;;15.50;99.90;;;;;;5011688;28;20168;-73
2023/08/09 01:41:10;;;;;;;5.00;4.13;;;15.40;99.90;;;;;;5011725;28;20642;-72
2023/08/09 01:43:36;;;;;;;4.00;3.70;;;15.30;99.90;;;;;;5011061;28;20568;-73
2023/08/09 01:46:03;;;;;;;4.37;3.97;;;15.20;99.90;;;;;;5011286;28;20176;-73
2023/08/09 01:48:29;;;;;;;4.13;3.83;;;15.10;99.90;;;;;;5011373;28;20172;-73
2023/08/09 01:50:54;;;;;;;4.30;4.00;;;15.10;99.90;;;;;;5011283;28;20203;-73
2023/08/09 01:53:20;;;;;;;4.47;4.07;;;15.00;99.90;;;;;;5010718;28;20196;-73
2023/08/09 01:55:46;;;;;;;4.07;3.77;;;14.90;99.90;;;;;;5010925;28;20276;-73
2023/08/09 01:58:11;;;;;;;4.40;4.10;;;14.90;99.90;;;;;;5011399;28;20180;-73
2023/08/09 02:00:37;;;;;;;5.00;4.50;;;14.90;99.90;;;;;;5011284;28;20172;-73
2023/08/09 02:03:03;;;;;;;5.10;4.70;;;14.90;99.90;;;;;;5010568;28;20559;-73
2023/08/09 02:05:28;;;;;;;5.07;4.73;;;14.90;99.90;;;;;;5011037;28;20246;-73
2023/08/09 02:07:54;;;;;;;5.23;4.83;;;14.90;99.90;;;;;;5011164;28;20173;-73
2023/08/09 02:10:20;;;;;;;6.10;4.60;;;14.90;99.90;;;;;;5010888;28;20184;-73
2023/08/09 02:12:48;;;;;;;5.50;5.10;;;14.90;99.90;;;;;;5010910;28;20196;-73
2023/08/09 02:15:19;;;;;;;5.33;4.90;;;14.80;99.90;;;;;;5010955;28;20630;-73
2023/08/09 02:17:46;;;;;;;5.90;5.40;;;14.80;99.90;;;;;;5010940;28;20258;-73
2023/08/09 02:20:12;;;;;;;5.17;4.87;;;14.80;99.90;;;;;;5011045;28;20169;-72
2023/08/09 02:22:39;;;;;;;5.20;4.80;;;14.70;99.90;;;;;;5010882;28;20560;-73
2023/08/09 02:25:05;;;;;;;5.80;5.30;;;14.70;99.90;;;;;;5010808;28;20180;-73
2023/08/09 02:27:31;;;;;;;5.87;5.47;;;14.70;99.90;;;;;;5009931;28;20661;-72
2023/08/09 02:29:57;;;;;;;5.43;5.03;;;14.60;99.90;;;;;;5011326;28;20180;-73
2023/08/09 02:32:22;;;;;;;5.63;5.13;;;14.50;99.90;;;;;;5012762;28;20261;-73
2023/08/09 02:34:48;;;;;;;5.90;5.40;;;14.50;99.90;;;;;;5014677;28;20282;-74
2023/08/09 02:37:13;;;;;;;4.97;4.47;;;14.50;99.90;;;;;;5014704;28;20208;-73
2023/08/09 02:39:39;;;;;;;4.97;4.57;;;14.50;99.90;;;;;;5014583;28;20247;-73
2023/08/09 02:42:04;;;;;;;5.23;4.83;;;14.50;99.90;;;;;;5014277;28;20172;-73
2023/08/09 02:44:32;;;;;;;5.20;4.70;;;14.50;99.90;;;;;;5014432;28;20480;-73
2023/08/09 02:46:58;;;;;;;5.10;4.70;;;14.50;99.90;;;;;;5014514;28;20560;-74
2023/08/09 02:49:24;;;;;;;5.37;4.90;;;14.60;99.90;;;;;;5014208;28;20511;-74
2023/08/09 02:51:49;;;;;;;5.60;5.20;;;14.60;99.90;;;;;;5013798;28;20184;-73
2023/08/09 02:54:15;;;;;;;5.07;4.67;;;14.70;99.90;;;;;;5012930;28;20262;-73
2023/08/09 02:56:41;;;;;;;5.00;4.60;;;14.60;99.90;;;;;;5014096;28;20203;-73
2023/08/09 02:59:06;;;;;;;6.87;5.30;;;14.70;99.90;;;;;;5012937;28;20635;-73
2023/08/09 03:01:33;;;;;;;6.60;4.87;;;14.70;99.90;;;;;;5012048;28;20181;-73
2023/08/09 03:03:59;;;;;;;5.00;4.70;;;14.70;99.90;;;;;;5012508;28;20198;-73
2023/08/09 03:06:24;;;;;;;5.50;5.10;;;14.70;99.90;;;;;;5013955;28;20180;-73
2023/08/09 03:08:51;;;;;;;5.23;4.73;;;14.80;99.90;;;;;;5014088;28;20173;-73
2023/08/09 03:11:21;;;;;;;5.20;4.73;;;14.70;99.90;;;;;;5013709;28;20258;-73
2023/08/09 03:13:46;;;;;;;5.00;4.60;;;14.60;99.90;;;;;;5013864;28;20199;-74
2023/08/09 03:16:12;;;;;;;5.23;4.73;;;14.60;99.90;;;;;;5013816;28;20207;-73
2023/08/09 03:18:39;;;;;;;5.57;5.00;;;14.50;99.90;;;;;;5013891;28;20645;-73
2023/08/09 03:21:04;;;;;;;5.33;4.73;;;14.50;99.90;;;;;;5013755;28;20220;-73
2023/08/09 03:23:30;;;;;;;6.23;5.50;;;14.50;99.90;;;;;;5013356;28;20594;-73
2023/08/09 03:25:56;;;;;;;5.80;5.30;;;14.40;99.90;;;;;;5013659;28;20226;-73
2023/08/09 03:28:21;;;;;;;6.77;5.37;;;14.50;99.90;;;;;;5013694;28;20254;-74
2023/08/09 03:30:47;;;;;;;6.20;5.70;;;14.50;99.90;;;;;;5013121;28;20668;-74
2023/08/09 03:33:14;;;;;;;5.87;5.40;;;14.60;99.90;;;;;;5013117;28;20219;-73
2023/08/09 03:35:40;;;;;;;6.30;5.70;;;14.60;99.90;;;;;;5013428;28;20199;-73
2023/08/09 03:38:05;;;;;;;6.43;5.90;;;14.60;99.90;;;;;;5013394;28;20169;-73
2023/08/09 03:40:31;;;;;;;5.73;5.20;;;14.60;99.90;;;;;;5013053;28;20230;-73
2023/08/09 03:42:56;;;;;;;5.73;5.23;;;14.60;99.90;;;;;;5011999;28;20184;-73
2023/08/09 03:45:23;;;;;;;6.50;5.90;;;14.60;99.90;;;;;;5011884;28;20545;-73
2023/08/09 03:47:49;;;;;;;6.10;5.50;;;14.60;99.90;;;;;;5013137;28;20259;-73
2023/08/09 03:50:14;;;;;;;10.90;5.70;;;14.60;99.90;;;;;;5013141;28;20729;-73
2023/08/09 03:52:40;;;;;;;6.23;5.47;;;14.50;99.90;;;;;;5012923;28;20241;-73
2023/08/09 03:55:06;;;;;;;5.70;5.30;;;14.60;99.90;;;;;;5013334;28;20196;-73
2023/08/09 03:57:32;;;;;;;8.23;5.63;;;14.70;99.90;;;;;;5012786;28;20627;-73
2023/08/09 03:59:57;;;;;;;6.30;5.80;;;14.60;99.90;;;;;;5012950;28;20180;-73
2023/08/09 04:02:23;;;;;;;5.90;5.30;;;14.60;99.90;;;;;;5012670;28;20180;-73
2023/08/09 04:04:49;;;;;;;6.23;5.70;;;14.60;99.90;;;;;;5012935;28;20652;-73
2023/08/09 04:07:14;;;;;;;7.13;6.10;;;14.60;99.90;;;;;;5013150;28;20259;-73
2023/08/09 04:09:40;;;;;;;6.30;5.80;;;14.60;99.90;;;;;;5012314;28;20191;-72
2023/08/09 04:12:06;;;;;;;6.47;5.93;;;14.60;99.90;;;;;;5012696;28;20586;-72
2023/08/09 04:14:33;;;;;;;6.50;5.93;;;14.50;99.90;;;;;;5012838;28;20270;-73
2023/08/09 04:16:58;;;;;;;7.23;6.00;;;14.40;99.90;;;;;;5012888;28;20292;-73
2023/08/09 04:19:25;;;;;;;6.80;6.20;;;14.30;99.90;;;;;;5012667;28;20258;-73
2023/08/09 04:21:51;;;;;;;6.27;5.70;;;14.30;99.90;;;;;;5011265;28;20723;-73
2023/08/09 04:24:17;;;;;;;6.80;6.20;;;14.30;99.90;;;;;;5003325;28;20184;-73
2023/08/09 04:26:43;;;;;;;6.53;5.93;;;14.30;99.90;;;;;;5012706;28;20634;-73
2023/08/09 04:29:09;;;;;;;6.70;6.10;;;14.40;99.90;;;;;;5012445;28;20180;-73
2023/08/09 04:31:34;;;;;;;6.90;6.30;;;14.40;99.90;;;;;;5010940;28;20681;-73
2023/08/09 04:34:00;;;;;;;7.07;6.37;;;14.40;99.90;;;;;;5012669;28;20258;-73
2023/08/09 04:36:26;;;;;;;7.13;6.40;;;14.30;99.90;;;;;;5012205;28;20196;-73
2023/08/09 04:38:52;;;;;;;6.97;6.30;;;14.40;99.90;;;;;;5012620;28;20168;-72
2023/08/09 04:41:18;;;;;;;6.20;5.70;;;14.40;99.90;;;;;;5012327;28;20222;-73
2023/08/09 04:43:43;;;;;;;6.53;5.93;;;14.50;99.90;;;;;;5011649;28;20200;-73
2023/08/09 04:46:13;;;;;;;7.00;6.30;;;14.60;99.90;;;;;;5012272;28;20183;-73
2023/08/09 04:48:40;;;;;;;10.57;6.33;;;14.60;99.90;;;;;;5011746;28;20180;-72
2023/08/09 04:51:07;;;;;;;6.83;5.93;;;14.70;99.90;;;;;;5012313;28;20548;-73
2023/08/09 04:53:32;;;;;;;8.27;6.00;;;14.80;99.90;;;;;;5011174;28;20246;-73
2023/08/09 04:55:58;;;;;;;6.83;6.13;;;14.90;99.90;;;;;;5012075;28;20208;-73
2023/08/09 04:58:24;;;;;;;8.90;6.00;;;15.00;99.90;;;;;;5012591;28;20168;-73
2023/08/09 05:00:50;;;;;;;7.33;6.37;;;14.90;99.90;;;;;;5010754;28;20184;-73
2023/08/09 05:03:15;;;;;;;6.90;6.30;;;15.00;99.90;;;;;;5009250;28;20653;-73
2023/08/09 05:05:41;;;;;;;6.50;5.90;;;15.00;99.90;;;;;;5011453;28;20215;-73
2023/08/09 05:08:06;;;;;;;6.10;5.57;;;15.00;99.90;;;;;;5012022;28;20168;-73
2023/08/09 05:10:34;;;;;;;9.63;6.53;;;14.90;99.90;;;;;;5011817;28;20198;-73
2023/08/09 05:12:59;;;;;;;8.10;6.57;;;14.90;99.90;;;;;;5011577;28;20239;-73
2023/08/09 05:15:25;;;;;;;8.60;6.10;;;14.80;99.90;;;;;;5011841;28;20578;-72
2023/08/09 05:17:51;;;;;;;6.07;5.47;;;14.80;99.90;;;;;;5010392;28;20215;-72
2023/08/09 05:20:16;;;;;;;6.17;5.57;;;14.70;99.90;;;;;;5011924;28;20618;-72
2023/08/09 05:22:42;;;;;;;6.87;6.27;;;14.60;99.90;;;;;;5011195;28;20199;-72
2023/08/09 05:25:08;;;;;;;6.80;6.00;;;14.60;99.90;;;;;;5011915;28;20183;-73
2023/08/09 05:27:33;;;;;;;6.40;5.80;;;14.70;99.90;;;;;;5011777;28;20195;-73
2023/08/09 05:29:59;;;;;;;8.30;5.90;;;14.70;99.90;;;;;;5009524;28;20207;-73
2023/08/09 05:32:24;;;;;;;6.43;5.80;;;14.80;99.90;;;;;;5009735;28;20204;-73
2023/08/09 05:34:50;;;;;;;6.10;5.57;;;14.90;99.90;;;;;;5011491;28;20196;-73
2023/08/09 05:37:16;;;;;;;8.60;6.17;;;15.00;99.90;;;;;;5011743;28;20653;-73
2023/08/09 05:39:41;;;;;;;6.13;5.57;;;15.10;99.90;;;;;;5011584;28;20179;-73
2023/08/09 05:42:07;;;;;;;6.67;6.00;;;15.20;99.90;;;;;;5010902;28;20211;-73
2023/08/09 05:44:34;;;;;;;8.07;6.73;;;15.30;99.90;;;;;;5011439;28;20172;-73
2023/08/09 05:47:00;;;;;;;7.30;6.70;;;15.30;99.90;;;;;;5011606;28;20587;-73
2023/08/09 05:49:26;;;;;;;7.13;6.47;;;15.40;99.90;;;;;;5011514;28;20209;-72
2023/08/09 05:51:53;;;;;;;7.67;6.90;;;15.60;99.90;;;;;;5010935;28;20188;-73
2023/08/09 05:54:18;;;;;;;7.90;7.10;;;15.70;99.90;;;;;;5011543;28;20615;-73
2023/08/09 05:56:44;;;;;;;9.30;8.37;;;15.90;99.90;;;;;;5009725;28;20208;-73
2023/08/09 05:59:10;;;;;;;9.90;8.90;;;16.10;99.90;;;;;;5011231;28;20203;-73
2023/08/09 06:01:36;;;;;;;11.33;9.33;;;16.20;99.90;;;;;;5010745;28;20173;-73
2023/08/09 06:04:02;;;;;;;10.80;9.30;;;16.40;99.90;;;;;;5011151;28;20664;-73
2023/08/09 06:06:28;;;;;;;10.70;9.57;;;16.70;99.90;;;;;;5014043;28;20249;-73
2023/08/09 06:08:53;;;;;;;11.37;8.90;;;16.90;99.90;;;;;;5013557;28;20317;-73
2023/08/09 06:11:19;;;;;;;10.30;8.77;;;17.00;99.90;;;;;;5015075;28;20216;-73
2023/08/09 06:13:46;;;;;;;9.60;8.70;;;17.10;99.90;;;;;;5014328;28;20204;-73
2023/08/09 06:16:11;;;;;;;10.00;9.10;;;17.30;99.90;;;;;;5015222;28;20203;-73
2023/08/09 06:18:37;;;;;;;9.20;8.27;;;17.60;99.90;;;;;;5013492;28;20172;-74
2023/08/09 06:21:04;;;;;;;8.00;7.20;;;17.80;99.90;;;;;;5014474;28;20177;-74
2023/08/09 06:23:30;;;;;;;8.87;7.97;;;17.90;99.90;;;;;;5013952;28;20185;-73
2023/08/09 06:25:56;;;;;;;8.87;8.10;;;17.90;99.90;;;;;;5013772;28;20172;-73
2023/08/09 06:28:21;;;;;;;8.17;7.47;;;18.00;99.90;;;;;;5014945;28;20179;-73
2023/08/09 06:30:47;;;;;;;9.07;8.17;;;18.30;99.90;;;;;;5013587;28;20615;-73
2023/08/09 06:33:12;;;;;;;8.40;7.60;;;18.70;99.90;;;;;;5012854;28;20246;-74
2023/08/09 06:35:38;;;;;;;8.90;8.10;;;18.80;99.90;;;;;;5014173;28;20187;-73
2023/08/09 06:38:04;;;;;;;8.20;7.50;;;19.00;99.90;;;;;;5014452;28;20211;-73
2023/08/09 06:40:30;;;;;;;9.53;8.57;;;19.00;99.90;;;;;;5014443;28;20665;-73
2023/08/09 06:42:56;;;;;;;9.43;8.53;;;19.00;99.90;;;;;;5013871;28;20372;-74
2023/08/09 06:45:22;;;;;;;8.47;7.60;;;19.10;99.90;;;;;;5014238;28;20176;-73
2023/08/09 06:47:48;;;;;;;8.53;7.80;;;19.20;99.90;;;;;;5013736;28;20193;-73
2023/08/09 06:50:14;;;;;;;8.33;7.63;;;19.30;99.90;;;;;;5013532;28;20275;-74
2023/08/09 06:52:39;;;;;;;8.57;7.77;;;19.70;99.90;;;;;;5013507;28;20614;-74
2023/08/09 06:55:07;;;;;;;7.97;7.27;;;20.00;99.90;;;;;;5014419;28;20203;-74
2023/08/09 06:57:33;;;;;;;7.37;6.70;;;20.30;99.90;;;;;;5014063;28;20200;-73
2023/08/09 06:59:59;;;;;;;8.32;7.63;;;20.80;99.90;;;;;;5014097;28;20164;-73
2023/08/09 07:02:26;;;;;;;7.38;6.70;;;21.40;99.90;;;;;;5014437;28;20220;-73
2023/08/09 07:04:53;;;;;;;7.43;6.78;;;21.50;99.90;;;;;;5014223;28;20172;-73
2023/08/09 07:07:19;;;;;;;7.45;6.82;;;21.50;99.90;;;;;;5014370;28;20211;-73
2023/08/09 07:09:45;;;;;;;8.23;7.43;;;21.20;99.90;;;;;;5014016;28;20229;-73
2023/08/09 07:12:10;;;;;;;7.90;7.20;;;20.90;99.90;;;;;;5013463;28;20637;-73
2023/08/09 07:14:36;;;;;;;8.33;7.53;;;20.50;99.90;;;;;;5013813;28;20259;-74
2023/08/09 07:17:02;;;;;;;8.97;8.17;;;20.20;99.90;;;;;;5013841;28;20204;-73
2023/08/09 07:19:28;;;;;;;9.40;8.50;;;19.90;99.90;;;;;;5013793;28;20164;-73
2023/08/09 07:21:54;;;;;;;9.53;8.57;;;19.60;99.90;;;;;;5013389;28;20580;-74
2023/08/09 07:24:19;;;;;;;9.20;8.40;;;19.40;99.90;;;;;;5013976;28;20192;-73
2023/08/09 07:26:45;;;;;;;8.70;8.00;;;19.30;99.90;;;;;;5013605;28;20605;-73
2023/08/09 07:29:11;;;;;;;8.77;8.00;;;19.00;99.90;;;;;;5013701;28;20665;-74
2023/08/09 07:31:36;;;;;;;8.93;8.23;;;19.50;99.90;;;;;;5013274;28;20173;-74
2023/08/09 07:34:02;;;;;;;7.13;6.53;;;20.40;99.90;;;;;;5013281;28;20212;-74
2023/08/09 07:36:28;;;;;;;6.88;6.28;;;21.30;99.90;;;;;;5013470;28;20191;-73
2023/08/09 07:38:53;;;;;;;7.28;6.55;;;22.30;99.90;;;;;;5012450;28;20637;-74
2023/08/09 07:41:19;;;;;;;6.28;5.78;;;23.20;99.90;;;;;;5011996;28;20192;-74
2023/08/09 07:43:45;;;;;;;6.70;6.20;;;24.20;99.90;;;;;;5011986;28;20199;-74
2023/08/09 07:46:11;;;;;;;7.40;6.75;;;25.00;99.90;;;;;;5012787;28;20577;-74
2023/08/09 07:48:37;;;;;;;7.35;6.75;;;25.50;99.90;;;;;;5013101;28;20274;-74
2023/08/09 07:51:02;;;;;;;6.50;6.00;;;26.00;99.90;;;;;;5012949;28;20251;-74
2023/08/09 07:53:28;;;;;;;5.35;4.85;;;26.40;99.90;;;;;;5013055;28;20678;-74
2023/08/09 07:55:54;;;;;;;5.40;5.00;;;26.60;99.90;;;;;;5010004;28;20180;-73
2023/08/09 07:58:20;;;;;;;5.28;4.90;;;26.90;99.90;;;;;;5013161;28;20200;-74
2023/08/09 08:00:46;;;;;;;6.20;5.70;;;27.10;99.90;;;;;;5012694;28;20189;-73
2023/08/09 08:03:12;;;;;;;7.75;7.15;;;27.30;99.90;;;;;;5012970;28;20192;-73
2023/08/09 08:05:38;;;;;;;5.60;5.18;;;27.40;99.90;;;;;;5012804;28;20467;-74
2023/08/09 08:08:03;;;;;;;6.82;6.00;;;27.70;99.90;;;;;;5012933;28;20177;-73
2023/08/09 08:10:29;;;;;;;5.93;4.97;;;27.30;99.90;;;;;;5012549;28;20180;-73
2023/08/09 08:12:55;;;;;;;11.88;11.07;;;26.30;99.90;;;;;;5012551;28;20641;-73
2023/08/09 08:15:21;;;;;;;8.18;7.20;;;25.60;99.90;;;;;;5012806;28;20180;-73
2023/08/09 08:17:48;;;;;;;8.32;7.65;;;24.00;99.90;;;;;;5012552;28;20207;-73
2023/08/09 08:20:17;;;;;;;6.97;6.38;;;22.80;99.90;;;;;;5012471;28;20176;-73
2023/08/09 08:22:47;;;;;;;8.45;7.85;;;22.00;99.90;;;;;;5012032;28;20203;-73
2023/08/09 08:25:14;;;;;;;10.50;9.77;;;21.50;99.90;;;;;;5012597;28;20535;-73
2023/08/09 08:27:42;;;;;;;7.53;6.95;;;21.20;99.90;;;;;;5011939;28;20225;-73
2023/08/09 08:30:08;;;;;;;7.13;6.53;;;21.00;99.90;;;;;;5011113;28;20172;-73
2023/08/09 08:32:35;;;;;;;10.45;9.75;;;21.10;99.90;;;;;;5011922;28;20223;-73
2023/08/09 08:35:02;;;;;;;5.90;5.45;;;21.80;99.90;;;;;;5012563;28;20192;-73
2023/08/09 08:37:28;;;;;;;5.68;5.18;;;22.30;99.90;;;;;;5012476;28;20200;-73
2023/08/09 08:39:55;;;;;;;6.47;5.65;;;22.80;99.90;;;;;;5012336;28;20576;-73
2023/08/09 08:42:21;;;;;;;7.85;7.10;;;23.50;99.90;;;;;;5011919;28;20169;-73
2023/08/09 08:44:46;;;;;;;7.32;6.72;;;24.20;99.90;;;;;;5012257;28;20645;-73
2023/08/09 08:47:12;;;;;;;6.47;5.97;;;25.10;99.90;;;;;;5012336;28;20187;-74
2023/08/09 08:49:43;;;;;;;6.35;5.93;;;25.60;99.90;;;;;;5012178;28;20226;-73
2023/08/09 08:52:09;;;;;;;5.95;5.45;;;25.90;99.90;;;;;;5011127;28;20214;-73
2023/08/09 08:54:36;;;;;;;6.30;5.80;;;26.10;99.90;;;;;;5011563;28;20227;-74
2023/08/09 08:57:02;;;;;;;7.05;5.10;;;26.40;99.90;;;;;;5011564;28;20294;-73
2023/08/09 08:59:28;;;;;;;6.32;5.82;;;26.70;99.90;;;;;;5011536;28;20276;-73
2023/08/09 09:01:54;;;;;;;6.60;6.10;;;26.90;99.90;;;;;;5010875;28;20184;-73
2023/08/09 09:04:19;;;;;;;5.80;5.30;;;27.10;99.90;;;;;;5011683;28;20198;-73
2023/08/09 09:06:45;;;;;;;6.63;6.13;;;27.30;99.90;;;;;;5011124;28;20176;-73
2023/08/09 09:09:15;;;;;;;7.57;7.07;;;27.60;99.90;;;;;;5012077;28;20684;-73
2023/08/09 09:11:44;;;;;;;5.35;4.90;;;27.80;99.90;;;;;;5011134;28;20187;-73
2023/08/09 09:14:17;;;;;;;6.25;5.80;;;28.50;99.90;;;;;;5011601;28;20211;-73
2023/08/09 09:16:43;;;;;;;6.05;4.85;;;29.10;99.90;;;;;;5010664;28;20222;-72
2023/08/09 09:19:09;;;;;;;3.90;3.60;;;29.70;99.90;;;;;;5011921;28;20172;-73
2023/08/09 09:21:36;;;;;;;4.20;3.90;;;29.60;99.90;;;;;;5011043;28;20184;-73
2023/08/09 09:24:07;;;;;;;4.10;3.80;;;29.00;99.90;;;;;;5011833;28;20234;-72
2023/08/09 09:26:34;;;;;;;4.80;4.50;;;28.40;99.90;;;;;;5011896;28;20199;-72
2023/08/09 09:28:59;;;;;;;7.13;6.68;;;27.90;99.90;;;;;;5009106;28;20180;-73
2023/08/09 09:31:40;;;;;;;4.10;3.80;;;27.70;99.90;;;;;;5010066;28;20598;-73
2023/08/09 09:34:07;;;;;;;4.13;3.90;;;28.30;99.90;;;;;;5011386;28;20337;-73
2023/08/09 09:36:37;;;;;;;9.27;8.77;;;28.80;99.90;;;;;;5011430;28;20283;-73
2023/08/09 09:39:11;;;;;;;5.20;4.90;;;29.70;99.90;;;;;;5011408;28;20204;-72
2023/08/09 09:41:38;;;;;;;4.95;4.65;;;30.00;99.90;;;;;;5014362;28;20179;-73
2023/08/09 09:44:04;;;;;;;4.30;3.90;;;30.40;99.90;;;;;;5015339;28;20554;-73
2023/08/09 09:46:30;;;;;;;5.00;4.70;;;30.70;99.90;;;;;;5015643;28;20255;-73
2023/08/09 09:49:04;;;;;;;4.72;4.43;;;30.90;99.90;;;;;;5014146;28;20302;-73
2023/08/09 09:51:29;;;;;;;4.43;4.13;;;31.10;99.90;;;;;;5015092;28;20233;-73
2023/08/09 09:53:55;;;;;;;3.63;3.42;;;31.10;99.90;;;;;;5015120;28;20612;-72
2023/08/09 09:56:21;;;;;;;4.22;3.90;;;30.80;99.90;;;;;;5015380;28;20200;-72
2023/08/09 09:58:47;;;;;;;4.45;3.58;;;30.90;99.90;;;;;;5014999;28;20575;-72
2023/08/09 10:01:18;;;;;;;3.65;3.40;;;30.80;99.90;;;;;;5015259;28;20191;-73
2023/08/09 10:03:44;;;;;;;3.45;3.08;;;30.80;99.90;;;;;;5014069;28;20192;-73
2023/08/09 10:06:17;;;;;;;5.43;4.82;;;30.80;99.90;;;;;;5015226;28;20179;-73
2023/08/09 10:08:44;;;;;;;5.68;5.38;;;31.00;99.90;;;;;;5014672;28;20223;-73
2023/08/09 10:11:09;;;;;;;5.15;4.85;;;31.40;99.90;;;;;;5015271;28;20607;-73
2023/08/09 10:13:37;;;;;;;5.53;5.22;;;31.60;99.90;;;;;;5014761;28;20274;-73
2023/08/09 10:16:06;;;;;;;3.10;2.90;;;31.90;99.90;;;;;;5014936;28;20184;-72
2023/08/09 10:18:43;;;;;;;7.47;7.07;;;31.00;99.90;;;;;;5014740;28;20634;-72
2023/08/09 10:21:13;;;;;;;4.95;4.65;;;30.50;99.90;;;;;;5014832;28;20645;-72
2023/08/09 10:23:38;;;;;;;6.78;6.32;;;29.70;99.90;;;;;;5013253;28;20188;-72
2023/08/09 10:26:04;;;;;;;4.70;4.20;;;28.80;99.90;;;;;;5014522;28;20183;-72
2023/08/09 10:28:39;;;;;;;4.55;3.90;;;28.80;99.90;;;;;;5014496;28;20183;-72
2023/08/09 10:31:04;;;;;;;6.55;6.13;;;29.00;99.90;;;;;;5014768;28;20180;-72
2023/08/09 10:33:31;;;;;;;4.97;4.68;;;28.80;99.90;;;;;;5014714;28;20243;-72
2023/08/09 10:35:57;;;;;;;4.25;3.95;;;28.80;99.90;;;;;;5014161;28;20181;-72
2023/08/09 10:38:32;;;;;;;6.88;6.38;;;28.60;99.90;;;;;;5013289;28;20692;-72
2023/08/09 10:40:59;;;;;;;9.32;8.82;;;28.30;99.90;;;;;;5014614;28;20179;-72
2023/08/09 10:43:29;;;;;;;11.60;11.00;;;28.10;99.90;;;;;;5013688;28;20270;-72
2023/08/09 10:45:56;;;;;;;9.52;9.02;;;28.10;99.90;;;;;;5014905;28;20546;-72
2023/08/09 10:48:22;;;;;;;7.32;6.93;;;28.00;99.90;;;;;;5014349;28;20172;-73
2023/08/09 10:51:16;;;;;;;9.85;9.13;;;28.30;99.90;;;;;;5013294;28;20177;-72
2023/08/09 10:54:05;;;;;;;11.95;11.25;;;28.60;99.90;;;;;;5012693;28;20618;-73
2023/08/09 10:56:45;;;;;;;8.70;8.10;;;28.70;99.90;;;;;;5014700;28;20254;-73
2023/08/09 10:59:14;;;;;;;5.80;5.40;;;28.80;99.90;;;;;;5012738;28;20218;-72
2023/08/09 11:01:43;;;;;;;8.52;8.02;;;29.00;99.90;;;;;;5013704;28;20251;-72
2023/08/09 11:04:14;;;;;;;7.63;7.13;;;28.90;99.90;;;;;;5013897;28;20210;-72
2023/08/09 11:06:44;;;;;;;8.35;7.88;;;28.80;99.90;;;;;;5014385;28;20664;-72
2023/08/09 11:09:19;;;;;;;10.13;9.52;;;28.50;99.90;;;;;;5013855;28;20176;-72
2023/08/09 11:11:47;;;;;;;10.95;10.35;;;28.00;99.90;;;;;;5013638;28;20183;-72
2023/08/09 11:14:15;;;;;;;6.30;5.80;;;27.90;99.90;;;;;;5013702;28;20208;-72
2023/08/09 11:16:41;;;;;;;6.72;6.28;;;28.00;99.90;;;;;;5013752;28;20196;-72
2023/08/09 11:19:17;;;;;;;8.25;6.78;;;28.20;99.90;;;;;;5014060;28;20252;-72
2023/08/09 11:21:52;;;;;;;8.50;7.97;;;28.00;99.90;;;;;;4994065;28;20472;-72
2023/08/09 11:24:20;;;;;;;11.70;11.00;;;27.80;99.90;;;;;;4994140;28;20275;-72
2023/08/09 11:26:57;;;;;;;8.75;8.15;;;27.60;99.90;;;;;;4994637;28;20191;-73
2023/08/09 11:29:26;;;;;;;9.52;8.60;;;27.80;99.90;;;;;;5013852;28;20183;-72
2023/08/09 11:31:54;;;;;;;8.40;7.90;;;28.30;99.90;;;;;;5013218;28;20175;-72
2023/08/09 11:34:22;;;;;;;6.72;6.22;;;27.70;99.90;;;;;;5012685;28;20275;-72
2023/08/09 11:36:49;;;;;;;4.57;4.28;;;27.70;99.90;;;;;;5013414;28;20204;-72
2023/08/09 11:39:15;;;;;;;7.43;7.03;;;27.40;99.90;;;;;;5013613;28;20168;-71
2023/08/09 11:41:55;;;;;;;10.02;9.52;;;26.80;99.90;;;;;;5012955;28;20169;-71
2023/08/09 11:44:27;;;;;;;10.15;9.25;;;26.50;99.90;;;;;;5012924;28;20198;-72
2023/08/09 11:46:54;;;;;;;6.10;5.50;;;26.30;99.90;;;;;;5013428;28;20255;-72
2023/08/09 11:49:30;;;;;;;6.68;6.20;;;26.30;99.90;;;;;;5013352;28;20664;-72
2023/08/09 11:51:56;;;;;;;5.80;5.30;;;26.80;99.90;;;;;;5011496;28;20211;-71
2023/08/09 11:54:22;;;;;;;10.85;9.98;;;26.60;99.90;;;;;;5012595;28;20196;-71
2023/08/09 11:56:48;;;;;;;9.55;9.05;;;26.40;99.90;;;;;;5012966;28;20212;-72
2023/08/09 11:59:19;;;;;;;10.43;9.90;;;26.70;99.90;;;;;;5013145;28;20170;-72
2023/08/09 12:01:47;;;;;;;7.10;4.03;;;26.70;99.90;;;;;;5012844;28;20164;-72
2023/08/09 12:04:19;;;;;;;5.35;4.85;;;26.30;99.90;;;;;;5011747;28;20243;-72
2023/08/09 12:06:59;;;;;;;5.20;4.20;;;26.30;99.90;;;;;;5013123;28;20172;-72
2023/08/09 12:09:39;;;;;;;6.75;3.50;;;26.20;99.90;;;;;;5011799;28;20211;-73
2023/08/09 12:12:16;;;;;;;4.65;4.40;;;26.40;99.90;;;;;;5012345;28;20183;-74
2023/08/09 12:14:46;;;;;;;4.13;3.70;;;26.90;99.90;;;;;;5012878;28;20611;-72
2023/08/09 12:17:19;;;;;;;7.40;6.72;;;27.00;99.90;;;;;;5012772;28;20645;-73
2023/08/09 12:19:45;;;;;;;7.00;6.45;;;27.40;99.90;;;;;;5012942;28;20173;-70
2023/08/09 12:22:11;;;;;;;3.72;3.50;;;27.90;99.90;;;;;;5010782;28;20264;-73
2023/08/09 12:24:36;;;;;;;6.18;5.68;;;28.10;99.90;;;;;;5012782;28;20168;-72
2023/08/09 12:27:03;;;;;;;5.63;5.13;;;28.10;99.90;;;;;;5012748;28;20168;-73
2023/08/09 12:29:29;;;;;;;4.60;4.35;;;28.40;99.90;;;;;;5012342;28;20718;-72
2023/08/09 12:31:55;;;;;;;7.35;6.80;;;28.80;99.90;;;;;;5011472;28;20176;-72
2023/08/09 12:34:21;;;;;;;8.27;7.78;;;29.00;99.90;;;;;;5012024;28;20342;-72
2023/08/09 12:36:47;;;;;;;11.68;11.07;;;28.80;99.90;;;;;;5012090;28;20207;-71
2023/08/09 12:39:14;;;;;;;7.65;7.25;;;27.90;99.90;;;;;;5012496;28;20169;-72
2023/08/09 12:41:40;;;;;;;15.30;14.60;;;27.70;99.90;;;;;;5012172;28;20168;-72
2023/08/09 12:44:09;;;;;;;12.68;12.13;;;27.60;99.90;;;;;;5008936;28;20226;-74